Kimball Junction, Utah
Current Conditions -  °F | °C
As of 4:55 AM on Thursday 27 Nov 2014 (Local Time) from K36U Reporting Station
Clear Clear  
Wind Chill: 25°   Ceiling: Unl
Heat Index: 25°   Visibility: 10mi
Dew Point: 23°   Wind: 0mph
Humidity: 93%   Direction: NA
Pressure: 30.4"   Gusts: NA
Location:  40.7004°N, 111.565°W
Report Text: K36U 271155Z AUTO 00000KT 10SM CLR M04/M05 A3040 RMK AO2
Loading
Personal Weather Stations






























Interactive Weather Map New forecast layout! Learn more

10-Day Weather Forecast

Advertisements
Track Severe Weather on mobile